Time;durP1;ratioP1;P1;durP2;ratioP2;P2;SDS_P1;SDS_P2;PMS_P1;PMS_P2;Temp;Humidity;BMP_temperature;BMP_pressure;BME280_temperature;BME280_humidity;BME280_pressure;Samples;Min_cycle;Max_cycle;Signal;HPM_P1;HPM_P2
2024/01/13 00:00:21;;;;;;;23.15;9.63;;;-5.30;99.90;;;;;;5053265;28;20045;-73
2024/01/13 00:02:47;;;;;;;22.08;9.65;;;-5.30;99.90;;;;;;5053558;28;20036;-73
2024/01/13 00:05:13;;;;;;;23.50;9.85;;;-5.40;99.90;;;;;;5053158;28;20029;-73
2024/01/13 00:07:38;;;;;;;21.70;9.68;;;-5.50;99.90;;;;;;5054666;28;20029;-73
2024/01/13 00:10:05;;;;;;;22.40;9.35;;;-5.40;99.90;;;;;;5056933;28;20028;-73
2024/01/13 00:12:30;;;;;;;25.95;11.45;;;-5.40;99.90;;;;;;5055785;28;20056;-73
2024/01/13 00:14:56;;;;;;;26.42;12.40;;;-5.40;99.90;;;;;;5057164;28;20065;-73
2024/01/13 00:17:22;;;;;;;24.88;11.15;;;-5.40;99.90;;;;;;5056897;28;20025;-73
2024/01/13 00:19:47;;;;;;;24.92;11.18;;;-5.40;99.90;;;;;;5055648;28;20033;-74
2024/01/13 00:22:13;;;;;;;28.77;11.32;;;-5.50;99.90;;;;;;5056489;28;20060;-73
2024/01/13 00:24:38;;;;;;;26.65;11.40;;;-5.50;99.90;;;;;;5055536;28;20033;-73
2024/01/13 00:27:04;;;;;;;26.98;11.60;;;-5.50;99.90;;;;;;5056477;28;20419;-74
2024/01/13 00:29:31;;;;;;;27.35;12.77;;;-5.50;99.90;;;;;;5056588;28;20384;-74
2024/01/13 00:31:57;;;;;;;24.85;11.00;;;-5.50;99.90;;;;;;5055490;28;20021;-73
2024/01/13 00:34:23;;;;;;;26.52;12.00;;;-5.50;99.90;;;;;;5056611;28;20511;-73
2024/01/13 00:36:49;;;;;;;27.63;11.35;;;-5.50;99.90;;;;;;5056545;28;20045;-73
2024/01/13 00:39:15;;;;;;;29.17;12.40;;;-5.50;99.90;;;;;;5069172;28;20029;-73
2024/01/13 00:41:41;;;;;;;28.75;11.70;;;-5.50;99.90;;;;;;5056393;28;20052;-73
2024/01/13 00:44:06;;;;;;;25.20;11.73;;;-5.60;99.90;;;;;;5056446;28;20033;-73
2024/01/13 00:46:32;;;;;;;24.38;12.05;;;-5.70;99.90;;;;;;5056585;28;20531;-73
2024/01/13 00:48:58;;;;;;;23.88;11.30;;;-5.70;99.90;;;;;;5056873;28;20472;-73
2024/01/13 00:51:23;;;;;;;22.80;10.02;;;-5.70;99.90;;;;;;5055008;28;20389;-73
2024/01/13 00:53:49;;;;;;;23.98;11.00;;;-5.80;99.90;;;;;;5056339;28;20381;-73
2024/01/13 00:56:14;;;;;;;24.48;9.85;;;-5.80;99.90;;;;;;5056482;28;20031;-73
2024/01/13 00:58:40;;;;;;;29.60;11.45;;;-5.90;99.90;;;;;;5056181;28;20032;-73
2024/01/13 01:01:06;;;;;;;24.27;11.00;;;-5.90;99.90;;;;;;5056029;28;20037;-73
2024/01/13 01:03:32;;;;;;;26.48;11.57;;;-6.00;99.90;;;;;;5056385;28;20523;-73
2024/01/13 01:05:58;;;;;;;23.73;10.50;;;-6.00;99.90;;;;;;5055207;28;20388;-73
2024/01/13 01:08:24;;;;;;;29.45;11.65;;;-6.00;99.90;;;;;;5061355;28;20032;-73
2024/01/13 01:10:49;;;;;;;23.83;10.43;;;-6.10;99.90;;;;;;5054530;28;20021;-73
2024/01/13 01:13:15;;;;;;;26.80;11.25;;;-6.10;99.90;;;;;;5056096;28;20029;-72
2024/01/13 01:15:41;;;;;;;26.65;10.82;;;-6.20;99.90;;;;;;5056172;28;20037;-73
2024/01/13 01:18:07;;;;;;;24.40;11.32;;;-6.30;99.90;;;;;;5067023;28;20481;-73
2024/01/13 01:20:33;;;;;;;24.10;10.60;;;-6.40;99.90;;;;;;5054999;28;20025;-73
2024/01/13 01:22:58;;;;;;;27.92;10.80;;;-6.40;99.90;;;;;;5055972;28;20029;-73
2024/01/13 01:25:24;;;;;;;23.30;11.38;;;-6.50;99.90;;;;;;5056173;28;20026;-73
2024/01/13 01:27:49;;;;;;;22.30;9.13;;;-6.50;99.90;;;;;;5054344;28;20477;-73
2024/01/13 01:30:15;;;;;;;25.20;10.23;;;-6.60;99.90;;;;;;5054223;28;20022;-73
2024/01/13 01:32:41;;;;;;;22.48;10.27;;;-6.60;99.90;;;;;;5055778;28;20044;-73
2024/01/13 01:35:07;;;;;;;22.83;10.27;;;-6.70;99.90;;;;;;5055688;28;20028;-73
2024/01/13 01:37:33;;;;;;;23.33;10.02;;;-6.70;99.90;;;;;;5054332;28;20052;-73
2024/01/13 01:39:59;;;;;;;22.23;10.23;;;-6.70;99.90;;;;;;5053835;28;20036;-73
2024/01/13 01:42:25;;;;;;;22.85;10.00;;;-6.80;99.90;;;;;;5055328;28;20025;-73
2024/01/13 01:44:50;;;;;;;22.58;10.50;;;-6.80;99.90;;;;;;5055581;28;20025;-73
2024/01/13 01:47:19;;;;;;;23.98;9.80;;;-6.80;99.90;;;;;;5055364;28;20108;-73
2024/01/13 01:49:45;;;;;;;18.15;8.77;;;-6.80;99.90;;;;;;5055115;28;20021;-73
2024/01/13 01:52:12;;;;;;;20.63;9.20;;;-6.90;99.90;;;;;;5055184;28;20028;-73
2024/01/13 01:54:38;;;;;;;19.70;9.18;;;-6.90;99.90;;;;;;5055102;28;20029;-73
2024/01/13 01:57:04;;;;;;;25.30;10.05;;;-6.90;99.90;;;;;;5055062;28;20078;-73
2024/01/13 01:59:31;;;;;;;22.23;8.98;;;-6.90;99.90;;;;;;5055104;28;20525;-73
2024/01/13 02:01:58;;;;;;;22.65;9.55;;;-6.90;99.90;;;;;;5055043;28;20116;-73
2024/01/13 02:04:24;;;;;;;21.42;9.27;;;-6.90;99.90;;;;;;5055067;28;20074;-73
2024/01/13 02:06:50;;;;;;;23.55;10.07;;;-6.90;99.90;;;;;;5054770;28;20033;-73
2024/01/13 02:09:16;;;;;;;20.02;9.65;;;-7.00;99.90;;;;;;5055131;28;20021;-73
2024/01/13 02:11:42;;;;;;;24.77;10.48;;;-7.00;99.90;;;;;;5054712;28;20565;-73
2024/01/13 02:14:08;;;;;;;21.17;8.85;;;-7.00;99.90;;;;;;5054560;28;20057;-73
2024/01/13 02:16:34;;;;;;;19.45;8.85;;;-7.10;99.90;;;;;;5054583;28;20025;-73
2024/01/13 02:18:59;;;;;;;20.83;9.10;;;-7.10;99.90;;;;;;5054939;28;20059;-73
2024/01/13 02:21:25;;;;;;;21.15;9.20;;;-7.00;99.90;;;;;;5053157;28;20079;-73
2024/01/13 02:23:50;;;;;;;20.70;8.70;;;-7.10;99.90;;;;;;5054877;28;20029;-73
2024/01/13 02:26:16;;;;;;;18.92;8.15;;;-7.20;99.90;;;;;;5054477;28;20021;-73
2024/01/13 02:28:42;;;;;;;18.80;8.45;;;-7.20;99.90;;;;;;5054667;28;20041;-73
2024/01/13 02:31:08;;;;;;;22.23;8.25;;;-7.30;99.90;;;;;;5053862;28;20049;-73
2024/01/13 02:33:33;;;;;;;22.17;8.93;;;-7.30;99.90;;;;;;5054404;28;20052;-73
2024/01/13 02:35:59;;;;;;;24.20;9.48;;;-7.30;99.90;;;;;;5054641;28;20029;-73
2024/01/13 02:38:24;;;;;;;15.25;7.30;;;-7.20;99.90;;;;;;5053127;28;20031;-73
2024/01/13 02:40:50;;;;;;;14.80;7.63;;;-7.20;99.90;;;;;;5054239;28;20508;-73
2024/01/13 02:43:16;;;;;;;18.10;7.65;;;-7.30;99.90;;;;;;5053022;28;20033;-73
2024/01/13 02:45:41;;;;;;;21.13;8.73;;;-7.40;99.90;;;;;;5052886;28;20039;-73
2024/01/13 02:48:16;;;;;;;18.55;7.45;;;-7.50;99.90;;;;;;5053993;28;20056;-73
2024/01/13 02:50:48;;;;;;;22.95;8.43;;;-7.60;99.90;;;;;;5054141;28;20113;-73
2024/01/13 02:53:13;;;;;;;19.13;7.97;;;-7.60;99.90;;;;;;5054034;28;20017;-73
2024/01/13 02:55:39;;;;;;;18.67;7.88;;;-7.70;99.90;;;;;;5053994;28;20078;-73
2024/01/13 02:58:06;;;;;;;19.02;8.93;;;-7.70;99.90;;;;;;5052651;28;20037;-73
2024/01/13 03:00:31;;;;;;;21.17;8.32;;;-7.70;99.90;;;;;;5053697;28;20037;-73
2024/01/13 03:02:57;;;;;;;21.33;8.68;;;-7.70;99.90;;;;;;5053922;28;20393;-73
2024/01/13 03:05:23;;;;;;;20.48;8.73;;;-7.70;99.90;;;;;;5053771;28;20032;-73
2024/01/13 03:07:48;;;;;;;22.80;9.07;;;-7.70;99.90;;;;;;5053664;28;20147;-73
2024/01/13 03:10:15;;;;;;;18.63;8.10;;;-7.70;99.90;;;;;;5053951;28;20128;-73
2024/01/13 03:12:41;;;;;;;18.70;9.05;;;-7.80;99.90;;;;;;5053685;28;20048;-73
2024/01/13 03:15:07;;;;;;;19.05;7.93;;;-7.90;99.90;;;;;;5053590;28;20021;-73
2024/01/13 03:17:33;;;;;;;19.98;8.05;;;-7.90;99.90;;;;;;5053528;28;20035;-73
2024/01/13 03:19:58;;;;;;;22.30;8.85;;;-7.90;99.90;;;;;;5053530;28;20534;-73
2024/01/13 03:22:24;;;;;;;18.63;8.60;;;-7.90;99.90;;;;;;5053582;28;20502;-73
2024/01/13 03:24:50;;;;;;;19.23;8.32;;;-8.00;99.90;;;;;;5053532;28;20032;-73
2024/01/13 03:27:15;;;;;;;23.15;8.18;;;-8.00;99.90;;;;;;5052275;28;20499;-73
2024/01/13 03:29:41;;;;;;;23.00;9.05;;;-8.00;99.90;;;;;;5053740;28;20112;-73
2024/01/13 03:32:06;;;;;;;21.00;8.20;;;-8.00;99.90;;;;;;5052242;28;20029;-73
2024/01/13 03:34:32;;;;;;;23.35;9.32;;;-8.10;99.90;;;;;;5053396;28;20032;-73
2024/01/13 03:36:58;;;;;;;22.27;8.77;;;-8.20;99.90;;;;;;5035780;28;20037;-73
2024/01/13 03:39:23;;;;;;;20.98;8.45;;;-8.30;99.90;;;;;;5053632;28;20078;-73
2024/01/13 03:41:49;;;;;;;21.15;8.77;;;-8.50;99.90;;;;;;5051378;28;20025;-73
2024/01/13 03:44:15;;;;;;;25.77;9.35;;;-8.60;99.90;;;;;;5052129;28;20051;-73
2024/01/13 03:46:40;;;;;;;18.60;7.75;;;-8.60;99.90;;;;;;5053170;28;20456;-73
2024/01/13 03:49:06;;;;;;;20.55;8.50;;;-8.60;99.90;;;;;;5053712;28;20477;-73
2024/01/13 03:51:32;;;;;;;19.77;8.88;;;-8.60;99.90;;;;;;5053219;28;20021;-73
2024/01/13 03:53:57;;;;;;;16.55;6.88;;;-8.60;99.90;;;;;;5035375;28;20116;-73
2024/01/13 03:56:23;;;;;;;17.92;7.75;;;-8.50;99.90;;;;;;5053222;28;20056;-73
2024/01/13 03:58:49;;;;;;;19.52;8.50;;;-8.40;99.90;;;;;;5053366;28;20036;-73
2024/01/13 04:01:15;;;;;;;17.85;7.57;;;-8.40;99.90;;;;;;5051778;28;20083;-74
2024/01/13 04:03:41;;;;;;;19.08;7.38;;;-8.30;99.90;;;;;;5053100;28;20033;-73
2024/01/13 04:06:07;;;;;;;18.48;8.00;;;-8.30;99.90;;;;;;5053121;28;20033;-73
2024/01/13 04:08:33;;;;;;;21.65;8.27;;;-8.30;99.90;;;;;;5053214;28;20484;-73
2024/01/13 04:10:59;;;;;;;19.17;7.70;;;-8.30;99.90;;;;;;5053159;28;20013;-73
2024/01/13 04:13:24;;;;;;;19.40;7.60;;;-8.30;99.90;;;;;;5051765;28;20029;-73
2024/01/13 04:15:50;;;;;;;20.48;7.95;;;-8.30;99.90;;;;;;5053238;28;20036;-73
2024/01/13 04:18:15;;;;;;;17.48;6.93;;;-8.30;99.90;;;;;;5052933;28;20025;-73
2024/01/13 04:20:41;;;;;;;17.30;7.60;;;-8.20;99.90;;;;;;5034567;28;20029;-73
2024/01/13 04:23:07;;;;;;;17.92;7.93;;;-8.30;99.90;;;;;;5052935;28;20083;-72
2024/01/13 04:25:32;;;;;;;18.73;7.50;;;-8.20;99.90;;;;;;5053227;28;20036;-72
2024/01/13 04:28:00;;;;;;;19.58;8.25;;;-8.20;99.90;;;;;;5051679;28;20103;-72
2024/01/13 04:30:27;;;;;;;19.55;8.75;;;-8.20;99.90;;;;;;5052881;28;20107;-73
2024/01/13 04:32:53;;;;;;;18.55;8.63;;;-8.30;99.90;;;;;;5052788;28;20029;-73
2024/01/13 04:35:19;;;;;;;19.40;8.07;;;-8.30;99.90;;;;;;5018639;28;20025;-73
2024/01/13 04:37:44;;;;;;;18.30;7.78;;;-8.30;99.90;;;;;;5034918;28;20037;-73
2024/01/13 04:40:10;;;;;;;19.95;8.00;;;-8.40;99.90;;;;;;5052697;28;20479;-73
2024/01/13 04:42:36;;;;;;;17.67;7.72;;;-8.40;99.90;;;;;;5052810;28;20029;-73
2024/01/13 04:45:02;;;;;;;21.90;7.68;;;-8.40;99.90;;;;;;5051649;28;20397;-73
2024/01/13 04:47:28;;;;;;;15.05;7.72;;;-8.50;99.90;;;;;;5052726;28;20435;-73
2024/01/13 04:49:54;;;;;;;19.80;7.65;;;-8.50;99.90;;;;;;5053257;28;20167;-73
2024/01/13 04:52:19;;;;;;;19.60;8.43;;;-8.60;99.90;;;;;;5052968;28;20029;-73
2024/01/13 04:54:45;;;;;;;21.17;9.70;;;-8.60;99.90;;;;;;5056078;28;20021;-73
2024/01/13 04:57:11;;;;;;;16.30;6.97;;;-8.60;99.90;;;;;;5056324;28;20106;-73
2024/01/13 04:59:37;;;;;;;20.05;7.63;;;-8.60;99.90;;;;;;5056364;28;20037;-74
2024/01/13 05:02:03;;;;;;;16.25;7.68;;;-8.60;99.90;;;;;;5056608;28;20510;-73
2024/01/13 05:04:28;;;;;;;19.13;8.15;;;-8.70;99.90;;;;;;5054929;28;20029;-73
2024/01/13 05:06:54;;;;;;;17.98;7.65;;;-8.60;99.90;;;;;;5054843;28;20037;-73
2024/01/13 05:09:20;;;;;;;18.48;8.60;;;-8.60;99.90;;;;;;5056120;28;20025;-73
2024/01/13 05:11:46;;;;;;;22.10;9.25;;;-8.60;99.90;;;;;;5055952;28;20029;-73
2024/01/13 05:14:11;;;;;;;16.02;7.53;;;-8.60;99.90;;;;;;5054858;28;20036;-73
2024/01/13 05:16:37;;;;;;;15.90;6.90;;;-8.60;99.90;;;;;;5055932;28;20033;-73
2024/01/13 05:19:03;;;;;;;15.70;6.90;;;-8.60;99.90;;;;;;5056051;28;20025;-73
2024/01/13 05:21:28;;;;;;;17.30;7.72;;;-8.60;99.90;;;;;;5055807;28;20423;-73
2024/01/13 05:23:54;;;;;;;17.17;6.95;;;-8.70;99.90;;;;;;5055738;28;20029;-73
2024/01/13 05:26:20;;;;;;;20.58;7.43;;;-8.80;99.90;;;;;;5055724;28;20063;-73
2024/01/13 05:28:45;;;;;;;15.88;7.40;;;-8.80;99.90;;;;;;5055728;28;20025;-73
2024/01/13 05:31:11;;;;;;;17.60;6.95;;;-8.90;99.90;;;;;;5037550;28;20036;-73
2024/01/13 05:33:36;;;;;;;16.55;7.53;;;-8.90;99.90;;;;;;5054395;28;20491;-73
2024/01/13 05:36:02;;;;;;;14.88;7.13;;;-8.90;99.90;;;;;;5037754;28;20029;-73
2024/01/13 05:38:28;;;;;;;17.10;7.03;;;-9.00;99.90;;;;;;5054293;28;20116;-73
2024/01/13 05:40:54;;;;;;;16.80;7.85;;;-9.00;99.90;;;;;;5037678;28;20033;-73
2024/01/13 05:43:20;;;;;;;16.92;7.70;;;-8.90;99.90;;;;;;5055410;28;20083;-73
2024/01/13 05:45:46;;;;;;;15.73;7.65;;;-9.00;99.90;;;;;;5053032;22;20034;-80
2024/01/13 05:48:12;;;;;;;16.00;7.47;;;-8.90;99.90;;;;;;5026340;28;20165;-80
2024/01/13 05:50:37;;;;;;;16.50;7.13;;;-8.90;99.90;;;;;;5060596;28;20052;-80
2024/01/13 05:53:03;;;;;;;15.68;6.72;;;-8.90;99.90;;;;;;5058974;28;20079;-80
2024/01/13 05:55:29;;;;;;;18.98;8.95;;;-8.90;99.90;;;;;;5060196;28;20088;-80
2024/01/13 05:57:55;;;;;;;16.20;8.10;;;-9.00;99.90;;;;;;5058872;28;20040;-80
2024/01/13 06:00:21;;;;;;;17.90;8.10;;;-9.00;99.90;;;;;;5040442;28;20029;-80
2024/01/13 06:02:46;;;;;;;16.05;8.02;;;-9.00;99.90;;;;;;5057512;28;20033;-80
2024/01/13 06:05:12;;;;;;;17.10;7.72;;;-9.00;99.90;;;;;;5040664;28;20048;-79
2024/01/13 06:07:38;;;;;;;30.05;11.40;;;-9.00;99.90;;;;;;5059173;28;20029;-80
2024/01/13 06:10:04;;;;;;;63.55;21.98;;;-9.00;99.90;;;;;;5058419;28;20033;-79
2024/01/13 06:12:30;;;;;;;49.00;18.25;;;-9.10;99.90;;;;;;5057236;28;20108;-79
2024/01/13 06:14:55;;;;;;;48.17;15.50;;;-9.00;99.90;;;;;;5057085;28;20040;-79
2024/01/13 06:17:22;;;;;;;33.15;11.77;;;-9.10;99.90;;;;;;5039261;28;20048;-79
2024/01/13 06:19:47;;;;;;;28.75;10.77;;;-9.10;99.90;;;;;;5041094;28;20060;-79
2024/01/13 06:22:14;;;;;;;33.13;10.07;;;-9.10;99.90;;;;;;5036385;28;20033;-79
2024/01/13 06:24:39;;;;;;;25.92;10.45;;;-9.20;99.90;;;;;;5038237;28;20021;-79
2024/01/13 06:27:05;;;;;;;21.42;9.30;;;-9.20;99.90;;;;;;5037367;28;20084;-79
2024/01/13 06:29:31;;;;;;;23.55;10.70;;;-9.20;99.90;;;;;;5051041;28;20028;-79
2024/01/13 06:31:56;;;;;;;25.35;9.77;;;-9.30;99.90;;;;;;5056660;28;20503;-79
2024/01/13 06:34:22;;;;;;;18.25;7.65;;;-9.30;99.90;;;;;;5057958;28;20516;-79
2024/01/13 06:36:48;;;;;;;20.52;7.43;;;-9.30;99.90;;;;;;5058272;28;20021;-80
2024/01/13 06:39:13;;;;;;;15.57;7.53;;;-9.40;99.90;;;;;;5057557;28;20021;-79
2024/01/13 06:41:39;;;;;;;13.93;6.55;;;-9.40;99.90;;;;;;5056743;28;20021;-79
2024/01/13 06:44:05;;;;;;;16.58;7.32;;;-9.40;99.90;;;;;;5057111;28;20083;-79
2024/01/13 06:46:31;;;;;;;18.58;7.50;;;-9.40;99.90;;;;;;5043409;28;20116;-79
2024/01/13 06:48:56;;;;;;;15.63;7.32;;;-9.30;99.90;;;;;;5047029;28;20017;-79
2024/01/13 06:51:22;;;;;;;15.10;6.35;;;-9.30;99.90;;;;;;5057408;28;20032;-79
2024/01/13 06:53:48;;;;;;;21.83;9.63;;;-9.30;99.90;;;;;;5058496;28;20049;-80
2024/01/13 06:56:14;;;;;;;28.27;11.25;;;-9.30;99.90;;;;;;5057487;28;20128;-79
2024/01/13 06:58:39;;;;;;;22.88;9.82;;;-9.30;99.90;;;;;;5050211;28;20112;-79
2024/01/13 07:01:05;;;;;;;21.15;9.15;;;-9.30;99.90;;;;;;5037769;28;20021;-79
2024/01/13 07:03:31;;;;;;;19.65;9.93;;;-9.30;99.90;;;;;;5037817;28;20025;-80
2024/01/13 07:05:57;;;;;;;17.05;7.95;;;-9.30;99.90;;;;;;5038156;28;20079;-80
2024/01/13 07:08:22;;;;;;;20.65;7.90;;;-9.30;99.90;;;;;;5024286;28;20052;-82
2024/01/13 07:10:50;;;;;;;16.08;8.00;;;-9.30;99.90;;;;;;5023272;28;20425;-80
2024/01/13 07:13:17;;;;;;;18.40;7.70;;;-9.30;99.90;;;;;;5056985;28;20020;-79
2024/01/13 07:15:43;;;;;;;15.65;7.05;;;-9.30;99.90;;;;;;5047262;28;20080;-79
2024/01/13 07:18:08;;;;;;;15.25;7.05;;;-9.30;99.90;;;;;;5025984;28;20128;-79
2024/01/13 07:20:34;;;;;;;14.32;6.45;;;-9.40;99.90;;;;;;5023978;28;20025;-79
2024/01/13 07:23:00;;;;;;;15.43;6.50;;;-9.40;99.90;;;;;;5026154;28;20032;-79
2024/01/13 07:25:26;;;;;;;15.05;6.55;;;-9.40;99.90;;;;;;5036377;28;20040;-79
2024/01/13 07:27:51;;;;;;;16.10;6.28;;;-9.40;99.90;;;;;;5036959;28;20036;-79
2024/01/13 07:30:17;;;;;;;13.52;5.97;;;-9.40;99.90;;;;;;5052844;28;20021;-79
2024/01/13 07:32:45;;;;;;;14.57;6.00;;;-9.40;99.90;;;;;;5055958;28;20045;-79
2024/01/13 07:35:11;;;;;;;17.27;6.22;;;-9.40;99.90;;;;;;5055416;28;20057;-79
2024/01/13 07:37:36;;;;;;;13.85;6.45;;;-9.40;99.90;;;;;;5056516;28;20091;-79
2024/01/13 07:40:02;;;;;;;13.60;5.63;;;-9.30;99.90;;;;;;5055326;28;20083;-79
2024/01/13 07:42:28;;;;;;;17.05;6.25;;;-9.30;99.90;;;;;;5055309;28;20112;-79
2024/01/13 07:44:54;;;;;;;18.63;7.50;;;-9.30;99.90;;;;;;5054761;28;20037;-79
2024/01/13 07:47:19;;;;;;;20.80;9.07;;;-9.30;99.90;;;;;;5035711;28;20438;-79
2024/01/13 07:49:45;;;;;;;17.88;8.60;;;-9.30;99.90;;;;;;5050036;28;20393;-79
2024/01/13 07:52:11;;;;;;;24.23;11.63;;;-9.30;99.90;;;;;;5038146;28;20078;-79
2024/01/13 07:54:36;;;;;;;20.38;9.13;;;-9.30;99.90;;;;;;5022009;28;20119;-79
2024/01/13 07:57:02;;;;;;;16.27;7.70;;;-9.30;99.90;;;;;;5056099;28;20033;-79
2024/01/13 07:59:28;;;;;;;15.57;7.25;;;-9.30;99.90;;;;;;5042949;28;20041;-79
2024/01/13 08:01:53;;;;;;;16.50;7.40;;;-9.30;99.90;;;;;;5046712;28;20032;-79
2024/01/13 08:04:20;;;;;;;16.67;7.60;;;-9.30;99.90;;;;;;5056080;28;20052;-79
2024/01/13 08:06:46;;;;;;;19.67;7.90;;;-9.30;99.90;;;;;;5054790;28;20030;-79
2024/01/13 08:09:11;;;;;;;18.20;7.93;;;-9.30;99.90;;;;;;5054860;28;20047;-79
2024/01/13 08:11:37;;;;;;;17.33;8.55;;;-9.30;99.90;;;;;;5055499;28;20021;-79
2024/01/13 08:14:03;;;;;;;20.02;9.95;;;-9.40;99.90;;;;;;5054957;28;20028;-79
2024/01/13 08:16:29;;;;;;;25.45;10.13;;;-9.50;99.90;;;;;;5046420;28;20084;-79
2024/01/13 08:18:55;;;;;;;21.23;8.55;;;-9.50;99.90;;;;;;5048496;28;20021;-79
2024/01/13 08:21:21;;;;;;;16.65;8.10;;;-9.60;99.90;;;;;;5035809;28;20030;-79
2024/01/13 08:23:46;;;;;;;19.83;8.40;;;-9.60;99.90;;;;;;5017856;28;20025;-79
2024/01/13 08:26:12;;;;;;;19.45;7.20;;;-9.60;99.90;;;;;;5035487;28;20508;-79
2024/01/13 08:28:38;;;;;;;14.68;6.70;;;-9.50;99.90;;;;;;5041061;28;20043;-79
2024/01/13 08:31:03;;;;;;;15.30;7.70;;;-9.50;99.90;;;;;;5024722;28;20455;-79
2024/01/13 08:33:29;;;;;;;14.38;5.95;;;-9.50;99.90;;;;;;5047469;28;20022;-79
2024/01/13 08:35:55;;;;;;;15.63;6.78;;;-9.40;99.90;;;;;;5015234;28;20121;-79
2024/01/13 08:38:20;;;;;;;16.13;6.32;;;-9.40;99.90;;;;;;5032804;28;20036;-78
2024/01/13 08:40:46;;;;;;;15.85;7.50;;;-9.30;99.90;;;;;;5038766;28;20076;-79
2024/01/13 08:43:13;;;;;;;18.83;7.45;;;-9.20;99.90;;;;;;5038180;28;20025;-79
2024/01/13 08:45:38;;;;;;;27.23;9.73;;;-9.30;99.90;;;;;;5024962;28;20060;-79
2024/01/13 08:48:05;;;;;;;22.33;8.73;;;-9.20;99.90;;;;;;5024853;28;20482;-79
2024/01/13 08:50:32;;;;;;;25.63;9.27;;;-9.20;99.90;;;;;;5015029;28;20022;-79
2024/01/13 08:52:57;;;;;;;24.70;8.68;;;-9.10;99.90;;;;;;5029086;28;20037;-79
2024/01/13 08:55:24;;;;;;;26.10;9.30;;;-9.00;99.90;;;;;;5027012;28;20029;-79
2024/01/13 08:57:50;;;;;;;24.42;8.00;;;-9.00;99.90;;;;;;5034162;28;20034;-79
2024/01/13 09:00:16;;;;;;;16.40;7.18;;;-8.90;99.90;;;;;;5033844;28;20029;-79
2024/01/13 09:02:43;;;;;;;15.98;7.03;;;-8.90;99.90;;;;;;5026613;28;20025;-79
2024/01/13 09:05:08;;;;;;;16.60;7.40;;;-8.90;99.90;;;;;;5024490;28;20033;-79
2024/01/13 09:07:37;;;;;;;18.63;8.80;;;-8.90;99.90;;;;;;5018984;28;20117;-79
2024/01/13 09:10:03;;;;;;;17.30;7.05;;;-8.80;99.90;;;;;;5050886;28;20081;-79
2024/01/13 09:12:29;;;;;;;21.45;7.10;;;-8.70;99.90;;;;;;5058892;28;20048;-79
2024/01/13 09:14:55;;;;;;;14.48;6.07;;;-8.60;99.90;;;;;;5056098;28;20362;-79
2024/01/13 09:17:20;;;;;;;14.70;6.15;;;-8.60;99.90;;;;;;5038481;28;20034;-79
2024/01/13 09:19:46;;;;;;;17.08;6.50;;;-8.60;99.90;;;;;;5049351;28;20033;-79
2024/01/13 09:22:12;;;;;;;17.10;6.07;;;-8.50;99.90;;;;;;5057613;28;20037;-79
2024/01/13 09:24:37;;;;;;;10.30;5.32;;;-8.40;99.90;;;;;;5048227;28;20115;-78
2024/01/13 09:27:03;;;;;;;11.57;5.28;;;-8.40;99.90;;;;;;5038856;28;20029;-79
2024/01/13 09:29:29;;;;;;;14.43;5.80;;;-8.30;99.90;;;;;;5021452;28;20079;-79
2024/01/13 09:31:55;;;;;;;17.85;6.78;;;-8.20;99.90;;;;;;5048527;28;20519;-79
2024/01/13 09:34:21;;;;;;;21.25;6.68;;;-8.20;99.90;;;;;;5058667;28;20028;-79
2024/01/13 09:36:47;;;;;;;16.10;6.05;;;-8.10;99.90;;;;;;5057266;28;20570;-79
2024/01/13 09:39:14;;;;;;;18.67;6.05;;;-8.10;99.90;;;;;;5056473;28;20036;-79
2024/01/13 09:41:41;;;;;;;19.83;5.80;;;-8.10;99.90;;;;;;5059659;28;20020;-79
2024/01/13 09:44:24;;;;;;;22.10;5.70;;;-8.00;99.90;;;;;;5046860;28;20462;-79
2024/01/13 09:46:51;;;;;;;15.70;6.47;;;-8.00;99.90;;;;;;5028645;28;20116;-79
2024/01/13 09:49:18;;;;;;;19.73;6.57;;;-7.90;99.90;;;;;;5019741;28;20052;-79
2024/01/13 09:51:45;;;;;;;12.88;5.72;;;-7.80;99.90;;;;;;5018399;28;20106;-79
2024/01/13 09:54:22;;;;;;;17.92;6.35;;;-7.70;99.90;;;;;;5001995;28;20022;-79
2024/01/13 09:56:49;;;;;;;21.63;7.25;;;-7.60;99.90;;;;;;5018513;28;20112;-80
2024/01/13 09:59:16;;;;;;;17.38;6.95;;;-7.50;99.90;;;;;;5019756;28;20478;-80
2024/01/13 10:01:41;;;;;;;17.15;7.60;;;-7.40;99.90;;;;;;5035926;28;20385;-80
2024/01/13 10:04:08;;;;;;;17.83;6.35;;;-7.30;99.90;;;;;;5057900;28;20029;-80
2024/01/13 10:06:37;;;;;;;17.92;6.20;;;-7.20;99.90;;;;;;5058962;28;20485;-80
2024/01/13 10:09:04;;;;;;;11.32;5.15;;;-7.10;99.90;;;;;;5057601;28;20025;-80
2024/01/13 10:11:30;;;;;;;16.35;5.38;;;-7.00;99.90;;;;;;5059301;28;20025;-80
2024/01/13 10:13:59;;;;;;;15.65;5.50;;;-6.90;99.90;;;;;;5057434;28;20094;-79
2024/01/13 10:16:27;;;;;;;13.35;6.13;;;-6.90;99.90;;;;;;5023166;28;20026;-79
2024/01/13 10:18:53;;;;;;;16.00;6.28;;;-6.80;99.90;;;;;;5018861;28;20030;-79
2024/01/13 10:21:18;;;;;;;20.00;6.70;;;-6.70;99.90;;;;;;5018515;28;20037;-79
2024/01/13 10:23:44;;;;;;;16.20;6.07;;;-6.70;99.90;;;;;;5017540;28;20030;-79
2024/01/13 10:26:10;;;;;;;14.40;6.55;;;-6.60;99.90;;;;;;5016897;28;20034;-79
2024/01/13 10:28:36;;;;;;;11.88;5.43;;;-6.50;99.90;;;;;;5023595;28;20043;-79
2024/01/13 10:31:02;;;;;;;15.25;6.63;;;-6.50;99.90;;;;;;5057887;28;20045;-79
2024/01/13 10:33:31;;;;;;;19.85;7.43;;;-6.30;99.90;;;;;;5058102;28;20044;-79
2024/01/13 10:35:57;;;;;;;30.85;8.15;;;-6.30;99.90;;;;;;5057670;28;20492;-79
2024/01/13 10:38:23;;;;;;;28.30;8.07;;;-6.20;99.90;;;;;;5057504;28;20532;-79
2024/01/13 10:40:49;;;;;;;24.67;8.15;;;-6.20;99.90;;;;;;5059185;28;20064;-79
2024/01/13 10:43:18;;;;;;;21.10;7.28;;;-6.10;99.90;;;;;;5057203;28;20112;-79
2024/01/13 10:45:49;;;;;;;17.95;6.72;;;-6.00;99.90;;;;;;5048888;28;20379;-79
2024/01/13 10:48:30;;;;;;;22.60;7.90;;;-6.00;99.90;;;;;;5036047;28;20044;-79
2024/01/13 10:50:57;;;;;;;17.27;7.10;;;-6.00;99.90;;;;;;5037191;28;20026;-79
2024/01/13 10:53:28;;;;;;;18.17;7.72;;;-5.90;99.90;;;;;;5048471;28;20025;-79
2024/01/13 10:55:54;;;;;;;17.85;7.20;;;-5.80;99.90;;;;;;5056104;28;20025;-79
2024/01/13 10:58:21;;;;;;;16.42;6.82;;;-5.80;99.90;;;;;;5056667;28;20036;-79
2024/01/13 11:00:47;;;;;;;13.30;5.93;;;-5.70;99.90;;;;;;5057138;28;20028;-79
2024/01/13 11:03:21;;;;;;;14.10;6.50;;;-5.60;99.90;;;;;;5055798;28;20140;-79
2024/01/13 11:05:46;;;;;;;13.00;5.88;;;-5.50;99.90;;;;;;5057020;28;20104;-79
2024/01/13 11:08:13;;;;;;;23.48;9.75;;;-5.40;99.90;;;;;;5056835;28;20061;-79
2024/01/13 11:10:46;;;;;;;45.28;18.80;;;-5.30;99.90;;;;;;5055686;28;20029;-79
2024/01/13 11:13:22;;;;;;;25.08;12.00;;;-5.20;99.90;;;;;;5046398;28;20018;-79
2024/01/13 11:16:03;;;;;;;29.75;10.85;;;-5.10;99.90;;;;;;5023927;28;20053;-79
2024/01/13 11:18:37;;;;;;;25.08;10.73;;;-5.00;99.90;;;;;;5026239;28;20032;-79
2024/01/13 11:21:05;;;;;;;21.50;10.55;;;-4.90;99.90;;;;;;5035379;28;20056;-79
2024/01/13 11:23:44;;;;;;;25.95;12.63;;;-4.90;99.90;;;;;;5050655;28;20527;-79
2024/01/13 11:26:11;;;;;;;22.38;10.73;;;-4.80;99.90;;;;;;5056846;28;20048;-79
2024/01/13 11:28:56;;;;;;;22.65;9.88;;;-4.70;99.90;;;;;;5040940;28;20079;-79
2024/01/13 11:31:40;;;;;;;26.67;11.38;;;-4.60;99.90;;;;;;5043266;28;20124;-79
2024/01/13 11:34:08;;;;;;;23.88;10.60;;;-4.50;99.90;;;;;;5057157;28;20480;-79
2024/01/13 11:36:39;;;;;;;33.55;13.80;;;-4.50;99.90;;;;;;5038817;28;20040;-80
2024/01/13 11:39:06;;;;;;;29.90;11.80;;;-4.40;99.90;;;;;;5058657;28;20021;-79
2024/01/13 11:41:41;;;;;;;32.83;13.65;;;-4.30;99.90;;;;;;5055513;28;20119;-79
2024/01/13 11:44:08;;;;;;;29.60;11.25;;;-4.10;99.90;;;;;;5037595;28;20029;-79
2024/01/13 11:46:38;;;;;;;27.60;11.30;;;-4.10;99.90;;;;;;5035080;28;20501;-80
2024/01/13 11:49:07;;;;;;;27.03;10.13;;;-4.00;99.90;;;;;;5037475;28;20355;-80
2024/01/13 11:52:12;;;;;;;21.02;9.65;;;-3.90;99.90;;;;;;5035119;28;20036;-80
2024/01/13 11:54:39;;;;;;;26.80;8.55;;;-3.80;99.90;;;;;;4979347;28;20061;-80
2024/01/13 11:57:09;;;;;;;19.95;9.52;;;-3.80;99.90;;;;;;5029470;28;20378;-80
2024/01/13 11:59:34;;;;;;;18.73;8.85;;;-3.70;99.90;;;;;;5036601;28;20105;-79
2024/01/13 12:02:01;;;;;;;22.13;9.52;;;-3.60;99.90;;;;;;5046599;28;20064;-80
2024/01/13 12:04:31;;;;;;;23.13;9.45;;;-3.60;99.90;;;;;;5058420;28;20029;-79
2024/01/13 12:06:58;;;;;;;26.65;10.30;;;-3.50;99.90;;;;;;5060862;28;20060;-79
2024/01/13 12:09:28;;;;;;;25.17;8.88;;;-3.50;99.90;;;;;;5058987;28;20041;-79
2024/01/13 12:11:55;;;;;;;19.07;8.47;;;-3.40;99.90;;;;;;5060319;28;20025;-79
2024/01/13 12:14:28;;;;;;;18.00;8.30;;;-3.30;99.90;;;;;;5060365;28;20100;-79
2024/01/13 12:16:58;;;;;;;13.93;7.55;;;-3.30;99.90;;;;;;5024686;28;20030;-79
2024/01/13 12:19:27;;;;;;;11.32;5.75;;;-3.20;99.90;;;;;;5040338;28;20022;-79
2024/01/13 12:21:53;;;;;;;18.20;7.65;;;-3.10;99.90;;;;;;5039816;28;20075;-79
2024/01/13 12:24:29;;;;;;;15.20;6.75;;;-3.10;99.90;;;;;;5040524;28;20029;-80
2024/01/13 12:26:56;;;;;;;14.65;7.20;;;-3.10;99.90;;;;;;5039860;28;20025;-80
2024/01/13 12:29:29;;;;;;;21.90;8.13;;;-3.00;99.90;;;;;;5060139;28;20032;-79
2024/01/13 12:31:55;;;;;;;24.83;7.43;;;-2.90;99.90;;;;;;5048792;28;20022;-79